Time;durP1;ratioP1;P1;durP2;ratioP2;P2;SDS_P1;SDS_P2;PMS_P1;PMS_P2;Temp;Humidity;BMP_temperature;BMP_pressure;BME280_temperature;BME280_humidity;BME280_pressure;Samples;Min_cycle;Max_cycle;Signal;HPM_P1;HPM_P2
2021/04/21 00:00:15;;;;;;;40.63;24.30;;;;;;;6.46;76.33;96165.63;5053162;28;20045;-69
2021/04/21 00:02:43;;;;;;;41.33;22.92;;;;;;;6.46;76.27;96162.91;5052998;28;20064;-69
2021/04/21 00:05:11;;;;;;;43.60;24.13;;;;;;;6.44;76.00;96162.41;5052571;28;20693;-69
2021/04/21 00:07:37;;;;;;;46.22;25.33;;;;;;;6.45;76.12;96149.69;5052202;28;20562;-69
2021/04/21 00:10:07;;;;;;;44.47;25.52;;;;;;;6.46;76.59;96152.09;5052286;28;20496;-70
2021/04/21 00:12:34;;;;;;;45.80;25.20;;;;;;;6.43;77.20;96158.09;5053903;28;20045;-70
2021/04/21 00:15:00;;;;;;;43.67;24.65;;;;;;;6.37;77.35;96153.88;5052558;28;20037;-69
2021/04/21 00:17:27;;;;;;;43.38;25.38;;;;;;;6.37;77.38;96148.47;5053301;28;20063;-69
2021/04/21 00:19:57;;;;;;;39.80;24.67;;;;;;;6.39;77.32;96146.28;5052325;28;20049;-69
2021/04/21 00:22:27;;;;;;;39.97;23.73;;;;;;;6.37;76.85;96148.47;5052646;28;20044;-69
2021/04/21 00:24:54;;;;;;;42.85;25.13;;;;;;;6.35;76.92;96149.84;5052566;28;20044;-69
2021/04/21 00:27:23;;;;;;;43.47;24.88;;;;;;;6.31;76.55;96155.03;5052329;28;20048;-69
2021/04/21 00:29:53;;;;;;;48.13;26.52;;;;;;;6.27;76.82;96145.94;5052882;28;20053;-69
2021/04/21 00:32:21;;;;;;;44.70;25.05;;;;;;;6.23;77.14;96142.22;5051623;28;20045;-69
2021/04/21 00:34:50;;;;;;;46.08;26.25;;;;;;;6.18;76.89;96139.59;5052955;28;20496;-69
2021/04/21 00:37:18;;;;;;;45.78;25.92;;;;;;;6.15;77.25;96142.88;5052514;28;20049;-69
2021/04/21 00:39:46;;;;;;;49.33;26.30;;;;;;;6.13;77.33;96142.38;5053132;28;20045;-69
2021/04/21 00:42:22;;;;;;;45.25;26.95;;;;;;;6.08;77.50;96134.34;5051648;28;20689;-69
2021/04/21 00:44:55;;;;;;;47.78;26.55;;;;;;;6.06;77.33;96133.84;5052543;28;20052;-69
2021/04/21 00:47:26;;;;;;;46.63;25.70;;;;;;;6.05;77.43;96134.91;5052086;28;21524;-70
2021/04/21 00:50:01;;;;;;;46.40;25.83;;;;;;;5.99;77.52;96126.09;5052159;28;20479;-69
2021/04/21 00:52:34;;;;;;;47.63;25.73;;;;;;;5.99;77.39;96124.19;5052699;28;20507;-69
2021/04/21 00:55:03;;;;;;;43.80;24.95;;;;;;;5.98;77.59;96121.78;5052030;28;20052;-69
2021/04/21 00:57:38;;;;;;;46.92;25.13;;;;;;;5.95;77.56;96120.47;5052503;28;20045;-69
2021/04/21 01:00:09;;;;;;;50.75;25.67;;;;;;;5.96;77.43;96121.28;5051650;28;20045;-70
2021/04/21 01:02:38;;;;;;;42.30;24.63;;;;;;;5.94;77.23;96118.84;5051743;28;20041;-69
2021/04/21 01:05:10;;;;;;;39.85;23.30;;;;;;;5.94;76.69;96118.84;5051115;28;20045;-70
2021/04/21 01:07:40;;;;;;;42.75;25.25;;;;;;;5.93;76.28;96119.16;5051534;28;20044;-69
2021/04/21 01:10:08;;;;;;;45.28;24.35;;;;;;;5.89;76.19;96118.09;5052032;28;20041;-69
2021/04/21 01:12:38;;;;;;;44.15;24.88;;;;;;;5.84;76.54;96115.47;5051336;28;20052;-69
2021/04/21 01:15:06;;;;;;;46.67;25.85;;;;;;;5.82;76.86;96115.78;5052318;28;20427;-70
2021/04/21 01:17:34;;;;;;;41.10;24.63;;;;;;;5.81;76.92;96118.78;5051122;28;20049;-69
2021/04/21 01:20:15;;;;;;;44.55;24.40;;;;;;;5.81;76.21;96119.56;5051738;28;20102;-68
2021/04/21 01:23:11;;;;;;;41.25;23.50;;;;;;;5.79;75.89;96123.66;5050701;28;20048;-69
2021/04/21 01:25:48;;;;;;;39.33;21.58;;;;;;;5.72;75.48;96118.63;5051037;28;20048;-71
2021/04/21 01:28:20;;;;;;;40.67;22.67;;;;;;;5.63;74.95;96118.47;5051069;28;20052;-69
2021/04/21 01:30:47;;;;;;;38.00;22.27;;;;;;;5.57;74.67;96118.84;5049911;28;20041;-69
2021/04/21 01:33:16;;;;;;;44.40;22.92;;;;;;;5.52;75.11;96132.41;5051031;28;20048;-69
2021/04/21 01:35:44;;;;;;;40.55;23.15;;;;;;;5.48;75.48;96127.63;5070864;28;20045;-69
2021/04/21 01:38:12;;;;;;;40.70;22.58;;;;;;;5.45;75.50;96125.47;5070713;28;20106;-69
2021/04/21 01:40:42;;;;;;;39.30;22.42;;;;;;;5.43;75.62;96130.38;5071647;28;20620;-69
2021/04/21 01:43:12;;;;;;;42.17;24.17;;;;;;;5.39;75.50;96128.53;5070489;28;20045;-69
2021/04/21 01:45:40;;;;;;;41.75;24.65;;;;;;;5.39;76.00;96129.34;5071817;28;20056;-69
2021/04/21 01:48:12;;;;;;;42.22;22.80;;;;;;;5.37;75.67;96128.81;5069974;28;20136;-70
2021/04/21 01:50:38;;;;;;;44.25;23.90;;;;;;;5.34;75.74;96126.72;5071895;28;20059;-69
2021/04/21 01:53:27;;;;;;;39.28;23.00;;;;;;;5.30;76.00;96119.47;5070112;28;20568;-69
2021/04/21 01:56:00;;;;;;;43.45;24.35;;;;;;;5.26;75.98;96123.84;5071444;28;20049;-69
2021/04/21 01:58:33;;;;;;;45.63;25.33;;;;;;;5.23;76.47;96125.25;5070024;28;20758;-69
2021/04/21 02:01:08;;;;;;;46.40;24.23;;;;;;;5.22;76.23;96123.63;5030888;28;20161;-70
2021/04/21 02:03:39;;;;;;;43.35;24.60;;;;;;;5.20;76.38;96120.41;5031620;28;20069;-69
2021/04/21 02:06:39;;;;;;;45.20;23.67;;;;;;;5.21;76.54;96124.69;5030109;28;20053;-69
2021/04/21 02:09:15;;;;;;;41.67;24.60;;;;;;;5.21;76.51;96117.41;5029565;28;20073;-69
2021/04/21 02:11:50;;;;;;;42.53;24.42;;;;;;;5.21;76.52;96116.59;5030851;28;20495;-69
2021/04/21 02:14:24;;;;;;;43.25;23.75;;;;;;;5.19;76.76;96118.81;5030266;28;20136;-70
2021/04/21 02:17:06;;;;;;;46.47;23.77;;;;;;;5.17;76.50;96115.59;5031306;28;20041;-69
2021/04/21 02:19:44;;;;;;;43.03;24.33;;;;;;;5.15;76.87;96112.38;5030146;28;20448;-69
2021/04/21 02:22:25;;;;;;;40.60;23.27;;;;;;;5.15;76.64;96115.06;5030722;28;20057;-69
2021/04/21 02:24:59;;;;;;;45.22;24.90;;;;;;;5.14;76.85;96121.56;5030371;28;20107;-69
2021/04/21 02:27:31;;;;;;;41.92;23.83;;;;;;;5.11;77.18;96122.13;5030132;28;20049;-69
2021/04/21 02:30:03;;;;;;;39.83;22.95;;;;;;;5.10;77.44;96121.31;5043324;28;20060;-69
2021/04/21 02:32:43;;;;;;;44.15;24.40;;;;;;;5.09;77.21;96127.03;5049824;28;20441;-69
2021/04/21 02:35:15;;;;;;;48.25;24.88;;;;;;;5.07;77.37;96130.03;5050584;28;20041;-69
2021/04/21 02:37:57;;;;;;;41.42;23.25;;;;;;;5.06;77.62;96125.69;5049943;28;20462;-69
2021/04/21 02:40:36;;;;;;;43.05;23.80;;;;;;;5.05;77.53;96124.09;5049985;28;20041;-69
2021/04/21 02:43:09;;;;;;;42.78;22.92;;;;;;;5.03;77.73;96118.19;5049689;28;20064;-69
2021/04/21 02:45:46;;;;;;;41.03;22.98;;;;;;;5.00;77.73;96120.66;5050101;28;20074;-69
2021/04/21 02:48:18;;;;;;;41.70;22.02;;;;;;;4.97;77.46;96122.84;5049156;28;20052;-69
2021/04/21 02:50:48;;;;;;;40.67;21.52;;;;;;;4.98;77.67;96121.75;5049897;28;20102;-69
2021/04/21 02:53:24;;;;;;;39.20;21.58;;;;;;;4.98;77.51;96124.44;5050012;28;20048;-69
2021/04/21 02:56:03;;;;;;;39.17;21.77;;;;;;;4.97;77.60;96114.75;5050049;28;20055;-69
2021/04/21 02:58:40;;;;;;;35.10;20.30;;;;;;;4.93;77.50;96121.00;5049164;28;20453;-69
2021/04/21 03:01:16;;;;;;;33.75;20.00;;;;;;;4.87;77.66;96112.16;5049970;28;20052;-70
2021/04/21 03:03:50;;;;;;;38.58;21.75;;;;;;;4.89;77.45;96119.97;5049585;28;20041;-69
2021/04/21 03:06:22;;;;;;;38.72;20.63;;;;;;;4.85;77.88;96108.94;5050279;28;20049;-69
2021/04/21 03:08:53;;;;;;;36.25;19.27;;;;;;;4.81;77.94;96107.91;5050587;28;20045;-69
2021/04/21 03:11:22;;;;;;;37.80;20.33;;;;;;;4.80;78.10;96106.28;5049985;28;20044;-69
2021/04/21 03:13:54;;;;;;;35.75;20.33;;;;;;;4.79;77.94;96109.28;5049858;28;20045;-69
2021/04/21 03:16:22;;;;;;;33.87;19.73;;;;;;;4.82;77.81;96108.72;5049341;28;20095;-69
2021/04/21 03:18:50;;;;;;;34.58;19.85;;;;;;;4.84;77.24;96112.72;5050312;28;20408;-69
2021/04/21 03:21:21;;;;;;;34.28;18.88;;;;;;;4.85;77.13;96114.31;5048918;28;20045;-69
2021/04/21 03:23:54;;;;;;;33.47;18.60;;;;;;;4.83;77.42;96111.13;5050536;28;20064;-68
2021/04/21 03:26:22;;;;;;;37.92;20.25;;;;;;;4.81;77.68;96113.31;5048942;28;20045;-69
2021/04/21 03:28:54;;;;;;;36.65;20.10;;;;;;;4.83;77.51;96105.72;5049485;28;20052;-69
2021/04/21 03:31:22;;;;;;;33.65;19.08;;;;;;;4.86;77.43;96104.38;5049395;28;20056;-69
2021/04/21 03:33:52;;;;;;;35.40;18.55;;;;;;;4.85;76.45;96108.94;5049529;28;20569;-69
2021/04/21 03:36:19;;;;;;;29.27;16.65;;;;;;;4.80;74.99;96114.38;5049334;28;20041;-69
2021/04/21 03:38:47;;;;;;;31.33;17.23;;;;;;;4.73;75.10;96105.84;5049518;28;20049;-69
2021/04/21 03:41:13;;;;;;;32.80;18.85;;;;;;;4.68;75.70;96100.50;5049838;28;20102;-69
2021/04/21 03:43:40;;;;;;;35.17;18.73;;;;;;;4.66;76.18;96097.28;5049059;28;20107;-69
2021/04/21 03:46:07;;;;;;;36.97;18.27;;;;;;;4.64;76.69;96105.66;5050037;28;20064;-70
2021/04/21 03:48:36;;;;;;;32.25;18.02;;;;;;;4.66;76.92;96105.38;5049916;28;20045;-69
2021/04/21 03:51:04;;;;;;;32.55;17.85;;;;;;;4.65;76.74;96103.78;5049645;28;20060;-69
2021/04/21 03:53:34;;;;;;;32.22;19.20;;;;;;;4.65;77.04;96103.78;5049349;28;20124;-69
2021/04/21 03:56:01;;;;;;;33.35;18.50;;;;;;;4.65;76.91;96098.38;5049806;28;20049;-68
2021/04/21 03:58:30;;;;;;;32.70;18.27;;;;;;;4.64;76.97;96107.53;5049045;28;20073;-69
2021/04/21 04:01:04;;;;;;;32.85;18.92;;;;;;;4.60;76.92;96098.44;5051918;28;20079;-70
2021/04/21 04:03:32;;;;;;;35.40;18.75;;;;;;;4.57;77.02;96104.41;5053599;28;20044;-69
2021/04/21 04:06:05;;;;;;;36.40;18.83;;;;;;;4.55;76.94;96106.59;5052630;28;20052;-69
2021/04/21 04:08:38;;;;;;;34.22;18.88;;;;;;;4.48;77.14;96104.22;5053679;28;20131;-70
2021/04/21 04:11:05;;;;;;;33.30;18.45;;;;;;;4.43;77.04;96107.75;5052170;28;20049;-72
2021/04/21 04:13:35;;;;;;;34.00;18.17;;;;;;;4.36;77.21;96104.59;5053075;28;20118;-70
2021/04/21 04:16:03;;;;;;;29.90;17.50;;;;;;;4.36;77.37;96101.09;5052416;28;20133;-69
2021/04/21 04:18:30;;;;;;;33.55;17.98;;;;;;;4.36;77.22;96106.50;5052864;28;20049;-70
2021/04/21 04:20:59;;;;;;;31.65;17.45;;;;;;;4.31;77.52;96101.16;5052871;28;20404;-71
2021/04/21 04:23:29;;;;;;;29.73;17.38;;;;;;;4.32;77.49;96108.94;5051968;28;20041;-69
2021/04/21 04:25:58;;;;;;;33.30;17.30;;;;;;;4.32;77.57;96111.63;5053440;28;20041;-69
2021/04/21 04:28:28;;;;;;;32.38;18.10;;;;;;;4.33;77.43;96118.66;5051425;28;20049;-70
2021/04/21 04:30:56;;;;;;;30.65;17.60;;;;;;;4.37;77.43;96119.69;5033003;28;20077;-69
2021/04/21 04:33:24;;;;;;;33.95;18.23;;;;;;;4.41;77.40;96125.31;5031864;28;20052;-69
2021/04/21 04:35:50;;;;;;;28.00;16.20;;;;;;;4.44;76.79;96130.94;5032656;28;20099;-69
2021/04/21 04:38:16;;;;;;;26.88;16.60;;;;;;;4.44;75.66;96130.16;5032156;28;20057;-69
2021/04/21 04:40:43;;;;;;;28.23;16.00;;;;;;;4.43;75.62;96132.00;5032416;28;20118;-69
2021/04/21 04:43:10;;;;;;;28.77;15.85;;;;;;;4.44;75.82;96130.94;5032184;28;20061;-69
2021/04/21 04:45:38;;;;;;;32.28;18.67;;;;;;;4.44;76.17;96130.94;5032108;28;20176;-69
2021/04/21 04:48:15;;;;;;;34.65;19.40;;;;;;;4.45;76.43;96135.25;5032496;28;20049;-69
2021/04/21 04:50:42;;;;;;;30.65;18.65;;;;;;;4.45;77.08;96137.94;5031721;28;20122;-69
2021/04/21 04:53:08;;;;;;;31.58;18.88;;;;;;;4.47;77.03;96134.16;5032309;28;20057;-69
2021/04/21 04:55:36;;;;;;;32.50;18.38;;;;;;;4.49;77.32;96134.66;5032112;28;20045;-69
2021/04/21 04:58:04;;;;;;;31.30;17.50;;;;;;;4.54;76.79;96140.84;5031883;28;20049;-69
2021/04/21 05:00:31;;;;;;;31.05;17.30;;;;;;;4.57;76.71;96150.25;5049047;28;20083;-69
2021/04/21 05:03:06;;;;;;;29.27;17.73;;;;;;;4.58;76.77;96144.56;5051799;28;20492;-69
2021/04/21 05:05:36;;;;;;;32.42;16.80;;;;;;;4.60;76.92;96145.09;5052274;28;20061;-69
2021/04/21 05:08:06;;;;;;;35.67;17.40;;;;;;;4.60;76.96;96138.91;5050949;28;20048;-70
2021/04/21 05:10:37;;;;;;;33.70;17.67;;;;;;;4.62;76.99;96142.91;5052313;28;20504;-70
2021/04/21 05:13:05;;;;;;;37.30;17.55;;;;;;;4.66;76.89;96149.34;5050083;28;20052;-69
2021/04/21 05:16:11;;;;;;;39.63;18.17;;;;;;;4.71;77.07;96148.50;5052095;28;20045;-71
2021/04/21 05:19:10;;;;;;;30.45;16.83;;;;;;;4.72;77.07;96147.41;5051846;28;20049;-69
2021/04/21 05:22:10;;;;;;;31.58;16.95;;;;;;;4.79;77.14;96147.84;5050982;28;20045;-69
2021/04/21 05:25:14;;;;;;;29.83;15.73;;;;;;;4.88;77.21;96156.13;5051637;28;20052;-69
2021/04/21 05:28:04;;;;;;;28.90;15.77;;;;;;;4.97;77.16;96165.22;5051692;28;20049;-71
2021/04/21 05:31:09;;;;;;;30.85;17.65;;;;;;;5.02;77.25;96161.66;5050007;28;20110;-71
2021/04/21 05:34:12;;;;;;;27.98;15.68;;;;;;;5.05;76.90;96161.06;5051447;28;20049;-71
2021/04/21 05:37:18;;;;;;;25.40;14.95;;;;;;;5.15;76.76;96155.56;5051650;28;20052;-71
2021/04/21 05:40:34;;;;;;;24.90;14.82;;;;;;;5.21;75.99;96160.59;5050794;28;20476;-69
2021/04/21 05:43:27;;;;;;;26.00;13.00;;;;;;;5.32;76.07;96163.97;5050638;28;20052;-71
2021/04/21 05:46:31;;;;;;;25.80;15.38;;;;;;;5.43;75.45;96162.78;5051880;28;20045;-69
2021/04/21 05:49:30;;;;;;;20.70;12.70;;;;;;;5.50;74.89;96171.31;5048533;28;20045;-71
2021/04/21 05:52:15;;;;;;;22.60;13.45;;;;;;;5.60;74.45;96172.28;5050746;28;20045;-69
2021/04/21 05:55:20;;;;;;;22.95;12.85;;;;;;;5.67;74.26;96168.13;5051523;28;20182;-69
2021/04/21 05:58:25;;;;;;;23.05;13.20;;;;;;;5.77;74.18;96167.19;5050613;28;20052;-69
2021/04/21 06:01:21;;;;;;;22.90;12.57;;;;;;;5.88;74.24;96171.34;5050491;28;20040;-69
2021/04/21 06:03:48;;;;;;;19.30;12.30;;;;;;;5.97;74.00;96172.34;5034337;28;20071;-69
2021/04/21 06:06:15;;;;;;;18.90;12.23;;;;;;;6.08;74.22;96166.78;5049797;28;20052;-69
2021/04/21 06:08:41;;;;;;;17.98;10.95;;;;;;;6.23;73.96;96166.53;5051508;28;20067;-69
2021/04/21 06:11:17;;;;;;;19.45;11.57;;;;;;;6.34;73.72;96170.69;5046901;28;20036;-73
2021/04/21 06:13:44;;;;;;;21.45;10.90;;;;;;;6.42;73.93;96174.59;5047591;28;20053;-70
2021/04/21 06:16:10;;;;;;;14.15;10.13;;;;;;;6.52;73.54;96177.97;5047289;28;20049;-72
2021/04/21 06:18:36;;;;;;;15.93;9.45;;;;;;;6.61;73.25;96177.28;5047759;28;20053;-71
2021/04/21 06:21:16;;;;;;;14.88;9.27;;;;;;;6.64;73.44;96177.50;5047172;28;20049;-72
2021/04/21 06:23:42;;;;;;;14.75;9.93;;;;;;;6.65;73.85;96181.81;5047065;28;20045;-71
2021/04/21 06:26:08;;;;;;;14.90;9.35;;;;;;;6.71;74.16;96174.41;5047423;28;20053;-75
2021/04/21 06:28:35;;;;;;;13.63;9.30;;;;;;;6.83;74.28;96182.84;5046062;28;20052;-69
2021/04/21 06:31:06;;;;;;;15.18;9.80;;;;;;;6.94;73.74;96184.28;5027202;28;20057;-70
2021/04/21 06:33:33;;;;;;;16.65;10.10;;;;;;;7.02;73.93;96183.56;5027094;28;20691;-70
2021/04/21 06:36:01;;;;;;;15.85;10.38;;;;;;;7.15;74.23;96183.88;5027637;28;20052;-72
2021/04/21 06:38:29;;;;;;;16.73;11.43;;;;;;;7.23;73.57;96189.41;5026663;28;20049;-69
2021/04/21 06:40:56;;;;;;;20.40;13.15;;;;;;;7.31;72.85;96187.94;5032162;28;20045;-71
2021/04/21 06:43:27;;;;;;;22.40;13.70;;;;;;;7.37;72.50;96186.72;5046930;28;20049;-69
2021/04/21 06:45:54;;;;;;;20.95;14.30;;;;;;;7.43;72.60;96184.72;5044189;28;20064;-70
2021/04/21 06:48:28;;;;;;;20.15;13.32;;;;;;;7.54;72.57;96186.91;5046826;28;20516;-71
2021/04/21 06:50:55;;;;;;;21.70;12.23;;;;;;;7.61;71.41;96188.41;5046051;28;20554;-70
2021/04/21 06:53:29;;;;;;;21.80;12.32;;;;;;;7.68;71.91;96183.38;5046439;28;20060;-69
2021/04/21 06:55:57;;;;;;;20.75;12.75;;;;;;;7.69;72.25;96188.50;5049587;28;20056;-68
2021/04/21 06:58:23;;;;;;;21.73;13.65;;;;;;;7.82;70.93;96192.28;5048798;28;20044;-68
2021/04/21 07:00:50;;;;;;;20.70;13.48;;;;;;;7.92;70.60;96178.50;5048736;28;20052;-68
2021/04/21 07:03:17;;;;;;;18.70;12.05;;;;;;;8.05;69.68;96180.38;5049230;28;20049;-68
2021/04/21 07:05:45;;;;;;;18.38;11.25;;;;;;;8.15;68.46;96187.50;5050235;28;20194;-69
2021/04/21 07:08:13;;;;;;;19.30;11.27;;;;;;;8.26;68.99;96193.50;5048809;28;20094;-68
2021/04/21 07:10:44;;;;;;;17.25;11.25;;;;;;;8.34;67.82;96192.75;5050477;28;20067;-68
2021/04/21 07:13:13;;;;;;;15.90;11.02;;;;;;;8.40;67.53;96196.97;5049018;28;20049;-69
2021/04/21 07:15:40;;;;;;;17.13;11.85;;;;;;;8.50;67.70;96202.16;5049954;28;20045;-69
2021/04/21 07:18:14;;;;;;;17.88;11.88;;;;;;;8.70;68.63;96195.44;5049171;28;20132;-69
2021/04/21 07:20:40;;;;;;;16.13;9.90;;;;;;;8.78;65.98;96191.19;5049106;28;20052;-68
2021/04/21 07:23:07;;;;;;;15.55;10.10;;;;;;;8.96;66.53;96197.50;5048982;28;20063;-68
2021/04/21 07:25:34;;;;;;;13.68;9.80;;;;;;;9.06;65.48;96189.88;5049139;28;20060;-69
2021/04/21 07:28:01;;;;;;;14.65;10.25;;;;;;;9.13;65.91;96187.53;5049212;28;20052;-68
2021/04/21 07:30:29;;;;;;;14.10;10.20;;;;;;;9.35;65.62;96196.75;5047833;28;20450;-70
2021/04/21 07:32:56;;;;;;;12.75;9.40;;;;;;;9.44;62.71;96186.69;5050296;28;20049;-67
2021/04/21 07:35:24;;;;;;;15.65;9.30;;;;;;;9.67;65.22;96192.84;5050179;28;20053;-67
2021/04/21 07:37:52;;;;;;;16.58;9.00;;;;;;;10.43;62.76;96196.00;5053328;28;20049;-69
2021/04/21 07:40:30;;;;;;;10.75;8.13;;;;;;;11.36;59.10;96188.28;5051943;28;20474;-68
2021/04/21 07:43:14;;;;;;;13.30;8.30;;;;;;;12.53;55.61;96183.94;5053218;28;20049;-70
2021/04/21 07:45:46;;;;;;;16.00;8.18;;;;;;;12.99;53.32;96182.03;5053351;28;20056;-68
2021/04/21 07:48:39;;;;;;;12.77;7.30;;;;;;;13.32;50.42;96184.78;5052459;28;20548;-68
2021/04/21 07:51:48;;;;;;;9.48;7.00;;;;;;;13.84;48.53;96181.38;5053280;28;20053;-69
2021/04/21 07:54:25;;;;;;;10.48;6.85;;;;;;;14.44;48.86;96189.84;5052532;28;20044;-68
2021/04/21 07:57:04;;;;;;;10.35;7.00;;;;;;;14.59;47.23;96191.88;5052241;28;20064;-68
2021/04/21 07:59:32;;;;;;;8.80;6.63;;;;;;;15.08;47.49;96195.19;5053074;28;20072;-70
2021/04/21 08:02:09;;;;;;;9.15;7.15;;;;;;;15.97;46.66;96193.13;5052097;28;20091;-68
2021/04/21 08:04:45;;;;;;;8.80;6.95;;;;;;;16.73;45.52;96201.94;5053130;28;20064;-68
2021/04/21 08:07:11;;;;;;;8.10;6.13;;;;;;;17.38;43.91;96191.00;5052466;28;20160;-70
2021/04/21 08:09:49;;;;;;;11.98;6.57;;;;;;;17.99;42.65;96185.38;5052051;28;20384;-68
2021/04/21 08:12:16;;;;;;;10.45;6.88;;;;;;;18.53;42.43;96197.16;5053101;28;20048;-69
2021/04/21 08:14:46;;;;;;;8.95;6.55;;;;;;;18.93;40.03;96188.25;5052087;28;20056;-70
2021/04/21 08:17:13;;;;;;;7.82;5.95;;;;;;;19.34;37.49;96187.53;5052963;28;20056;-68
2021/04/21 08:19:41;;;;;;;8.52;6.22;;;;;;;19.54;36.65;96189.72;5051899;28;20136;-68
2021/04/21 08:22:08;;;;;;;9.55;6.30;;;;;;;19.96;37.78;96188.53;5052930;28;20190;-69
2021/04/21 08:24:45;;;;;;;8.80;7.25;;;;;;;20.21;38.19;96183.19;5052221;28;20060;-69
2021/04/21 08:27:16;;;;;;;7.93;6.72;;;;;;;19.89;35.65;96187.66;5052330;28;20487;-70
2021/04/21 08:29:45;;;;;;;12.70;7.32;;;;;;;20.03;36.52;96196.06;5052295;28;20044;-69
2021/04/21 08:32:19;;;;;;;9.75;7.63;;;;;;;20.31;34.00;96190.75;5052551;28;20045;-69
2021/04/21 08:34:45;;;;;;;10.73;7.30;;;;;;;20.47;34.37;96182.19;5053148;28;20127;-68
2021/04/21 08:37:11;;;;;;;11.25;8.73;;;;;;;19.78;34.47;96185.63;5051337;28;20071;-69
2021/04/21 08:39:38;;;;;;;10.35;8.50;;;;;;;19.97;35.35;96190.09;5053082;28;20503;-69
2021/04/21 08:42:07;;;;;;;14.50;10.05;;;;;;;19.65;34.09;96178.78;5051245;28;20083;-69
2021/04/21 08:44:40;;;;;;;14.82;9.88;;;;;;;20.10;35.64;96187.03;5052473;28;20076;-68
2021/04/21 08:47:09;;;;;;;12.75;8.75;;;;;;;20.79;36.44;96178.81;5051532;28;20074;-71
2021/04/21 08:49:35;;;;;;;12.35;8.63;;;;;;;21.31;34.39;96185.75;5051792;28;20044;-68
2021/04/21 08:52:02;;;;;;;11.50;9.52;;;;;;;21.05;31.71;96181.28;5049504;28;20064;-69
2021/04/21 08:54:31;;;;;;;12.68;9.85;;;;;;;20.65;32.24;96185.03;5034013;28;20041;-69
2021/04/21 08:56:58;;;;;;;14.27;10.00;;;;;;;20.78;34.08;96182.75;5052394;28;20060;-70
2021/04/21 08:59:24;;;;;;;16.05;11.32;;;;;;;20.40;33.07;96184.88;5050319;28;20040;-70
2021/04/21 09:01:51;;;;;;;12.07;10.00;;;;;;;20.74;33.49;96184.72;5052254;28;20048;-69
2021/04/21 09:04:18;;;;;;;16.52;10.80;;;;;;;21.14;33.91;96185.63;5050816;28;20049;-70
2021/04/21 09:06:47;;;;;;;16.35;12.35;;;;;;;21.19;31.96;96191.59;5052204;28;20041;-69
2021/04/21 09:09:15;;;;;;;14.88;11.45;;;;;;;21.55;31.85;96192.50;5051033;28;20052;-68
2021/04/21 09:11:41;;;;;;;15.93;12.55;;;;;;;21.55;31.49;96186.97;5051249;28;20045;-70
2021/04/21 09:14:07;;;;;;;15.85;12.13;;;;;;;21.21;31.87;96188.44;5051274;28;20068;-69
2021/04/21 09:16:33;;;;;;;16.75;12.45;;;;;;;21.43;33.28;96192.88;5051206;28;20053;-70
2021/04/21 09:19:00;;;;;;;15.95;11.60;;;;;;;21.61;33.79;96185.41;5051885;28;20048;-68
2021/04/21 09:21:31;;;;;;;14.05;11.07;;;;;;;21.79;28.18;96184.63;5050623;28;20045;-67
2021/04/21 09:23:57;;;;;;;16.50;12.77;;;;;;;22.08;32.12;96175.13;5052138;28;20182;-67
2021/04/21 09:26:26;;;;;;;14.40;11.15;;;;;;;21.98;31.16;96175.91;5050306;28;20094;-67
2021/04/21 09:28:54;;;;;;;16.35;12.32;;;;;;;22.23;27.27;96175.13;5051735;28;20049;-67
2021/04/21 09:31:21;;;;;;;17.48;11.75;;;;;;;22.30;30.35;96175.91;5050120;28;20052;-67
2021/04/21 09:33:48;;;;;;;15.98;12.55;;;;;;;22.68;30.67;96173.44;5051459;28;20421;-68
2021/04/21 09:36:32;;;;;;;18.05;13.38;;;;;;;22.64;32.63;96167.09;5050565;28;20052;-68
2021/04/21 09:39:17;;;;;;;16.35;11.27;;;;;;;22.42;30.39;96177.47;5051107;28;20053;-68
2021/04/21 09:41:44;;;;;;;16.35;12.43;;;;;;;22.27;31.63;96167.59;5051779;28;20080;-69
2021/04/21 09:44:15;;;;;;;16.45;12.50;;;;;;;21.76;30.38;96164.00;5050497;28;20052;-70
2021/04/21 09:46:42;;;;;;;17.42;12.93;;;;;;;21.00;30.42;96167.81;5051678;28;20388;-70
2021/04/21 09:49:33;;;;;;;16.38;13.10;;;;;;;20.31;32.77;96176.16;5049964;28;20052;-71
2021/04/21 09:52:02;;;;;;;14.70;12.55;;;;;;;20.44;33.40;96173.84;5051092;28;20049;-70
2021/04/21 09:54:30;;;;;;;18.25;12.68;;;;;;;20.20;30.75;96165.03;5050605;28;20407;-70
2021/04/21 09:57:06;;;;;;;16.65;11.98;;;;;;;20.37;32.69;96174.59;5050538;28;20560;-71
2021/04/21 09:59:32;;;;;;;17.45;13.27;;;;;;;20.31;33.61;96174.16;5051159;28;20045;-71
2021/04/21 10:01:58;;;;;;;15.10;12.07;;;;;;;20.07;31.16;96172.81;5050504;28;20077;-70
2021/04/21 10:04:25;;;;;;;18.20;13.65;;;;;;;20.08;32.46;96168.88;5050578;28;20488;-70
2021/04/21 10:06:53;;;;;;;18.98;13.32;;;;;;;20.39;35.22;96165.91;5050124;28;20049;-70
2021/04/21 10:09:28;;;;;;;17.45;12.82;;;;;;;20.65;34.30;96173.19;5049857;28;20044;-70
2021/04/21 10:12:13;;;;;;;17.73;12.15;;;;;;;20.77;32.74;96168.09;5050139;28;20056;-70
2021/04/21 10:14:39;;;;;;;17.42;13.52;;;;;;;20.97;32.55;96167.78;5049929;28;20068;-70
2021/04/21 10:17:05;;;;;;;17.52;13.25;;;;;;;20.76;30.31;96162.97;5050686;28;20045;-69
2021/04/21 10:19:32;;;;;;;17.23;12.98;;;;;;;20.64;32.83;96166.88;5049764;28;20045;-68
2021/04/21 10:21:59;;;;;;;17.60;13.43;;;;;;;20.80;32.49;96166.53;5051252;28;20183;-70
2021/04/21 10:24:27;;;;;;;17.85;13.13;;;;;;;20.75;31.15;96159.41;5048919;28;20399;-70
2021/04/21 10:26:54;;;;;;;17.27;13.25;;;;;;;20.55;32.50;96161.69;5050473;28;20044;-70
2021/04/21 10:29:21;;;;;;;16.58;13.35;;;;;;;20.43;31.06;96167.53;5049264;28;20570;-70
2021/04/21 10:31:47;;;;;;;17.70;13.65;;;;;;;20.45;32.47;96162.38;5049580;28;20059;-70
2021/04/21 10:34:14;;;;;;;16.73;12.90;;;;;;;20.54;33.68;96156.53;5050009;28;20060;-69
2021/04/21 10:36:42;;;;;;;18.70;12.88;;;;;;;20.68;32.33;96155.81;5050119;28;20059;-69
2021/04/21 10:39:08;;;;;;;17.17;13.07;;;;;;;20.71;30.68;96146.72;5050063;28;20498;-70
2021/04/21 10:41:35;;;;;;;18.23;12.95;;;;;;;20.83;33.63;96147.19;5049968;28;20045;-69
2021/04/21 10:44:10;;;;;;;16.92;12.13;;;;;;;21.17;34.93;96146.09;5049963;28;20060;-71
2021/04/21 10:46:59;;;;;;;16.17;13.60;;;;;;;21.20;30.71;96150.88;5049405;28;20057;-69
2021/04/21 10:49:43;;;;;;;20.00;13.50;;;;;;;21.07;29.53;96145.69;5050007;28;20048;-74
2021/04/21 10:52:11;;;;;;;16.02;13.25;;;;;;;20.98;32.52;96139.72;5049544;28;20053;-71
2021/04/21 10:54:38;;;;;;;16.00;12.45;;;;;;;21.17;32.79;96137.78;5031487;28;20060;-70
2021/04/21 10:57:29;;;;;;;16.33;12.55;;;;;;;21.33;34.60;96135.47;5029887;28;20041;-70
2021/04/21 11:00:14;;;;;;;16.52;12.65;;;;;;;21.47;32.22;96129.97;5041618;28;20540;-70
2021/04/21 11:02:56;;;;;;;18.60;12.10;;;;;;;21.51;32.27;96128.00;5050173;28;20041;-70
2021/04/21 11:05:27;;;;;;;17.45;12.15;;;;;;;21.62;30.05;96120.47;5049799;28;20064;-70
2021/04/21 11:07:59;;;;;;;19.35;13.95;;;;;;;21.37;31.69;96125.22;5049538;28;20049;-70
2021/04/21 11:10:48;;;;;;;17.55;12.82;;;;;;;21.01;30.23;96129.84;5048894;28;20057;-70
2021/04/21 11:13:17;;;;;;;17.65;12.38;;;;;;;20.49;29.46;96118.97;5049029;28;20051;-70
2021/04/21 11:15:45;;;;;;;17.52;12.38;;;;;;;20.25;32.40;96119.59;5048532;28;20053;-69
2021/04/21 11:18:36;;;;;;;19.08;13.60;;;;;;;20.44;34.19;96113.78;5049500;28;20548;-70
2021/04/21 11:21:05;;;;;;;16.52;13.48;;;;;;;20.46;33.47;96111.44;5039499;28;20052;-71
2021/04/21 11:24:10;;;;;;;21.08;15.15;;;;;;;20.55;30.74;96114.66;5048169;28;20051;-70
2021/04/21 11:26:42;;;;;;;20.92;15.02;;;;;;;20.42;31.79;96110.63;5047472;28;20048;-69
2021/04/21 11:29:12;;;;;;;19.98;15.20;;;;;;;20.70;31.31;96111.94;5048144;28;20441;-69
2021/04/21 11:32:12;;;;;;;18.55;14.77;;;;;;;20.31;30.70;96109.78;5048396;28;20614;-69
2021/04/21 11:34:40;;;;;;;20.10;14.40;;;;;;;20.21;34.21;96107.75;5045244;28;20498;-69
2021/04/21 11:37:09;;;;;;;19.58;13.60;;;;;;;20.48;33.96;96103.56;5049220;28;20053;-70
2021/04/21 11:39:57;;;;;;;16.88;13.80;;;;;;;20.82;30.89;96103.28;5047914;28;20045;-70
2021/04/21 11:42:30;;;;;;;15.60;11.60;;;;;;;21.03;32.03;96086.72;5049624;28;20064;-70
2021/04/21 11:44:58;;;;;;;;;;;;;;;21.23;30.98;96092.72;5049204;28;20141;-70
2021/04/21 11:47:39;;;;;;;19.23;12.77;;;;;;;21.41;32.02;96098.31;5049372;28;19974;-70
2021/04/21 11:50:23;;;;;;;17.98;12.80;;;;;;;21.37;30.00;96086.44;5049067;28;20044;-70